Time;durP1;ratioP1;P1;durP2;ratioP2;P2;SDS_P1;SDS_P2;PMS_P1;PMS_P2;Temp;Humidity;BMP_temperature;BMP_pressure;BME280_temperature;BME280_humidity;BME280_pressure;Samples;Min_cycle;Max_cycle;Signal;HPM_P1;HPM_P2
2024/01/15 00:00:06;;;;;;;2.60;0.87;;;1.60;99.90;;;;;;5071242;28;20194;-81
2024/01/15 00:02:37;;;;;;;8.97;1.10;;;1.60;99.90;;;;;;5078128;28;20278;-83
2024/01/15 00:05:05;;;;;;;6.47;1.20;;;1.70;99.90;;;;;;5067476;28;20647;-81
2024/01/15 00:07:32;;;;;;;5.03;0.97;;;1.70;99.90;;;;;;5062032;28;20203;-83
2024/01/15 00:10:01;;;;;;;7.13;1.10;;;1.70;99.90;;;;;;5059317;28;20211;-82
2024/01/15 00:12:29;;;;;;;3.73;1.13;;;1.70;99.90;;;;;;5054297;23;20231;-45
2024/01/15 00:14:56;;;;;;;7.03;1.17;;;1.70;99.90;;;;;;5033204;28;20280;-45
2024/01/15 00:17:23;;;;;;;7.00;1.20;;;1.70;99.90;;;;;;5040132;28;20203;-47
2024/01/15 00:19:49;;;;;;;12.67;1.63;;;1.70;99.90;;;;;;5040526;28;20196;-48
2024/01/15 00:22:16;;;;;;;3.27;1.00;;;1.80;99.90;;;;;;5043076;28;20974;-46
2024/01/15 00:24:43;;;;;;;6.47;1.03;;;1.70;99.90;;;;;;5035423;28;20282;-46
2024/01/15 00:27:11;;;;;;;3.87;1.27;;;1.80;99.90;;;;;;5004225;28;20870;-46
2024/01/15 00:29:39;;;;;;;7.23;1.43;;;1.80;99.90;;;;;;5037499;28;20918;-50
2024/01/15 00:32:07;;;;;;;8.27;1.47;;;1.80;99.90;;;;;;5033243;28;20424;-47
2024/01/15 00:34:33;;;;;;;8.10;1.67;;;1.80;99.90;;;;;;5036765;28;20579;-51
2024/01/15 00:37:00;;;;;;;4.37;1.40;;;1.80;99.90;;;;;;5035488;28;20196;-48
2024/01/15 00:39:27;;;;;;;8.53;1.80;;;1.80;99.90;;;;;;5043698;28;20191;-47
2024/01/15 00:41:54;;;;;;;6.87;1.43;;;1.80;99.90;;;;;;5007392;28;20202;-47
2024/01/15 00:44:21;;;;;;;9.13;1.40;;;1.80;99.90;;;;;;5047572;28;20202;-45
2024/01/15 00:46:49;;;;;;;5.77;1.63;;;1.80;99.90;;;;;;5030065;28;20234;-49
2024/01/15 00:49:16;;;;;;;12.90;1.63;;;1.80;99.90;;;;;;5039713;28;20218;-48
2024/01/15 00:51:43;;;;;;;9.57;2.23;;;1.80;99.90;;;;;;5028331;28;20214;-45
2024/01/15 00:54:09;;;;;;;8.37;1.47;;;1.80;99.90;;;;;;5042870;28;20221;-47
2024/01/15 00:56:37;;;;;;;7.47;1.17;;;1.80;99.90;;;;;;5014415;28;20198;-46
2024/01/15 00:59:04;;;;;;;8.53;1.47;;;1.80;99.90;;;;;;5042577;28;20238;-47
2024/01/15 01:01:31;;;;;;;9.03;1.73;;;1.90;99.90;;;;;;5028648;28;20210;-46
2024/01/15 01:03:59;;;;;;;7.40;1.40;;;2.00;99.90;;;;;;5039924;28;20273;-46
2024/01/15 01:06:26;;;;;;;3.47;1.20;;;1.90;99.90;;;;;;5038056;28;20207;-48
2024/01/15 01:08:52;;;;;;;7.73;1.33;;;1.90;99.90;;;;;;5044422;28;20272;-46
2024/01/15 01:11:19;;;;;;;6.40;1.17;;;1.90;99.90;;;;;;5038368;28;20227;-48
2024/01/15 01:13:46;;;;;;;7.47;1.77;;;1.90;99.90;;;;;;5014133;28;20923;-47
2024/01/15 01:16:13;;;;;;;9.00;2.00;;;1.90;99.90;;;;;;5027357;28;20196;-46
2024/01/15 01:18:40;;;;;;;11.67;1.43;;;1.90;99.90;;;;;;5033060;28;21048;-48
2024/01/15 01:21:08;;;;;;;4.40;1.10;;;1.90;99.90;;;;;;5044038;28;20214;-46
2024/01/15 01:23:35;;;;;;;8.87;1.63;;;1.90;99.90;;;;;;5025657;28;20575;-50
2024/01/15 01:26:02;;;;;;;8.63;1.47;;;1.90;99.90;;;;;;5037940;28;20199;-46
2024/01/15 01:28:29;;;;;;;7.40;1.93;;;1.90;99.90;;;;;;5010338;28;20247;-49
2024/01/15 01:30:56;;;;;;;6.43;1.20;;;1.90;99.90;;;;;;5036103;28;20196;-46
2024/01/15 01:33:23;;;;;;;8.17;1.40;;;2.00;99.90;;;;;;5031766;28;20298;-48
2024/01/15 01:35:50;;;;;;;5.07;1.40;;;1.90;99.90;;;;;;5039068;28;20518;-47
2024/01/15 01:38:18;;;;;;;8.07;1.57;;;1.90;99.90;;;;;;5034890;28;20612;-49
2024/01/15 01:40:46;;;;;;;4.83;1.00;;;1.80;99.90;;;;;;5030948;28;20195;-47
2024/01/15 01:43:12;;;;;;;7.43;1.20;;;1.80;99.90;;;;;;5015000;28;20272;-48
2024/01/15 01:45:39;;;;;;;9.47;1.67;;;1.80;99.90;;;;;;5036533;28;20187;-46
2024/01/15 01:48:07;;;;;;;14.33;1.77;;;1.90;99.90;;;;;;5034706;28;20222;-46
2024/01/15 01:50:34;;;;;;;6.63;1.53;;;1.90;99.90;;;;;;5043093;28;20195;-51
2024/01/15 01:53:03;;;;;;;6.43;1.50;;;1.90;99.90;;;;;;5045478;28;20241;-49
2024/01/15 01:55:34;;;;;;;8.90;1.43;;;2.00;99.90;;;;;;5029737;28;20203;-49
2024/01/15 01:58:01;;;;;;;9.57;2.00;;;2.00;99.90;;;;;;5011145;28;20215;-46
2024/01/15 02:00:28;;;;;;;6.43;1.60;;;2.00;99.90;;;;;;5038407;28;20549;-48
2024/01/15 02:02:55;;;;;;;10.43;1.80;;;2.00;99.90;;;;;;5028162;28;20479;-47
2024/01/15 02:05:23;;;;;;;7.70;1.60;;;2.10;99.90;;;;;;5041584;28;20195;-47
2024/01/15 02:07:50;;;;;;;5.87;1.83;;;2.10;99.90;;;;;;5040042;28;20933;-50
2024/01/15 02:10:17;;;;;;;5.33;1.40;;;2.10;99.90;;;;;;5027753;28;20204;-48
2024/01/15 02:12:48;;;;;;;5.20;1.37;;;2.10;99.90;;;;;;5033745;28;20269;-50
2024/01/15 02:15:15;;;;;;;6.00;0.90;;;2.10;99.90;;;;;;5011731;28;20222;-46
2024/01/15 02:17:58;;;;;;;9.93;1.60;;;2.10;99.90;;;;;;5033581;28;20223;-46
2024/01/15 02:20:25;;;;;;;2.93;0.93;;;2.20;99.90;;;;;;5036316;28;20206;-48
2024/01/15 02:22:53;;;;;;;3.17;1.30;;;2.10;99.90;;;;;;5022518;28;20642;-48
2024/01/15 02:25:21;;;;;;;9.03;1.40;;;2.10;99.90;;;;;;5018967;28;20199;-47
2024/01/15 02:27:48;;;;;;;6.93;1.50;;;2.10;99.90;;;;;;5049975;28;20219;-49
2024/01/15 02:30:16;;;;;;;9.17;1.90;;;2.20;99.90;;;;;;5006403;28;20223;-50
2024/01/15 02:32:43;;;;;;;7.33;0.97;;;2.10;99.90;;;;;;5034564;28;20272;-47
2024/01/15 02:35:10;;;;;;;4.27;0.80;;;2.10;99.90;;;;;;5027973;28;20222;-47
2024/01/15 02:37:37;;;;;;;6.37;1.70;;;2.00;99.90;;;;;;5039338;28;20230;-47
2024/01/15 02:40:04;;;;;;;7.30;1.33;;;2.00;99.90;;;;;;5015614;28;20699;-48
2024/01/15 02:42:32;;;;;;;9.37;1.93;;;2.00;99.90;;;;;;5046571;28;20209;-47
2024/01/15 02:44:59;;;;;;;8.03;1.20;;;2.00;99.90;;;;;;5009498;28;20211;-49
2024/01/15 02:47:26;;;;;;;5.77;1.00;;;2.10;99.90;;;;;;5046417;28;20218;-48
2024/01/15 02:49:53;;;;;;;4.47;1.13;;;2.10;99.90;;;;;;5016179;28;20203;-47
2024/01/15 02:52:20;;;;;;;5.83;1.30;;;2.10;99.90;;;;;;5041559;28;20235;-46
2024/01/15 02:54:46;;;;;;;5.97;2.10;;;2.10;99.90;;;;;;5038446;28;20221;-47
2024/01/15 02:57:13;;;;;;;8.80;1.40;;;2.10;99.90;;;;;;5027241;28;20618;-48
2024/01/15 02:59:41;;;;;;;9.83;2.00;;;2.10;99.90;;;;;;5006647;28;20339;-52
2024/01/15 03:02:08;;;;;;;7.13;1.50;;;2.10;99.90;;;;;;5041858;28;20668;-47
2024/01/15 03:04:35;;;;;;;9.17;1.57;;;2.10;99.90;;;;;;5031159;28;20188;-49
2024/01/15 03:07:02;;;;;;;9.47;1.50;;;2.10;99.90;;;;;;5036663;28;20278;-46
2024/01/15 03:09:29;;;;;;;12.80;1.63;;;2.10;99.90;;;;;;5043484;28;20257;-50
2024/01/15 03:11:55;;;;;;;11.30;1.60;;;2.00;99.90;;;;;;5031776;28;20219;-49
2024/01/15 03:14:25;;;;;;;9.10;1.50;;;2.00;99.90;;;;;;5035072;28;20671;-48
2024/01/15 03:16:53;;;;;;;13.33;2.10;;;2.00;99.90;;;;;;5022603;28;20770;-52
2024/01/15 03:19:20;;;;;;;4.50;1.13;;;2.10;99.90;;;;;;5039000;28;20225;-53
2024/01/15 03:21:47;;;;;;;9.30;2.00;;;2.10;99.90;;;;;;5031511;28;20204;-47
2024/01/15 03:24:14;;;;;;;8.13;1.37;;;2.10;99.90;;;;;;5038265;28;20199;-48
2024/01/15 03:26:41;;;;;;;14.30;1.60;;;2.10;99.90;;;;;;5035933;28;20187;-48
2024/01/15 03:29:08;;;;;;;10.77;2.77;;;2.10;99.90;;;;;;5030688;28;20222;-49
2024/01/15 03:31:35;;;;;;;3.87;1.90;;;2.10;99.90;;;;;;5023252;28;20202;-51
2024/01/15 03:34:03;;;;;;;11.97;1.80;;;2.10;99.90;;;;;;5041634;28;20670;-49
2024/01/15 03:36:30;;;;;;;6.97;1.83;;;2.10;99.90;;;;;;5040090;28;20246;-52
2024/01/15 03:38:57;;;;;;;9.90;1.60;;;2.10;99.90;;;;;;5043889;28;20230;-49
2024/01/15 03:41:23;;;;;;;13.37;2.20;;;2.10;99.90;;;;;;5042846;28;20196;-51
2024/01/15 03:43:50;;;;;;;17.90;2.63;;;2.10;99.90;;;;;;5026552;28;20183;-49
2024/01/15 03:46:17;;;;;;;10.17;2.80;;;2.10;99.90;;;;;;5016300;28;20677;-47
2024/01/15 03:48:44;;;;;;;15.93;2.97;;;2.10;99.90;;;;;;5035181;28;20215;-49
2024/01/15 03:51:12;;;;;;;8.10;2.27;;;2.20;99.90;;;;;;5040172;28;20199;-49
2024/01/15 03:53:39;;;;;;;26.47;2.30;;;2.10;99.90;;;;;;5026053;28;22099;-48
2024/01/15 03:56:06;;;;;;;15.93;2.20;;;2.10;99.90;;;;;;5039393;28;20269;-48
2024/01/15 03:58:33;;;;;;;15.17;2.10;;;2.20;99.90;;;;;;5035893;28;20215;-48
2024/01/15 04:00:59;;;;;;;10.80;1.93;;;2.20;99.90;;;;;;5009464;28;20261;-48
2024/01/15 04:03:26;;;;;;;11.77;3.63;;;2.20;99.90;;;;;;5038942;28;20211;-49
2024/01/15 04:05:53;;;;;;;12.50;1.77;;;2.20;99.90;;;;;;5040847;28;20195;-47
2024/01/15 04:08:21;;;;;;;11.00;2.17;;;2.20;99.90;;;;;;5035488;28;20226;-49
2024/01/15 04:10:48;;;;;;;10.27;1.93;;;2.20;99.90;;;;;;5041824;28;20191;-49
2024/01/15 04:13:15;;;;;;;13.13;1.80;;;2.10;99.90;;;;;;5045016;28;20227;-46
2024/01/15 04:15:42;;;;;;;12.00;2.20;;;2.20;99.90;;;;;;5035587;28;20924;-48
2024/01/15 04:18:09;;;;;;;12.53;2.33;;;2.20;99.90;;;;;;5011185;28;20219;-47
2024/01/15 04:20:36;;;;;;;15.37;1.93;;;2.20;99.90;;;;;;5040078;28;20195;-50
2024/01/15 04:23:03;;;;;;;17.07;2.97;;;2.20;99.90;;;;;;5029906;28;20199;-47
2024/01/15 04:25:31;;;;;;;12.50;2.87;;;2.30;99.90;;;;;;5028766;28;20222;-53
2024/01/15 04:27:58;;;;;;;10.33;1.77;;;2.30;99.90;;;;;;5039286;28;20734;-50
2024/01/15 04:30:26;;;;;;;13.60;2.70;;;2.30;99.90;;;;;;5032775;28;20508;-49
2024/01/15 04:32:52;;;;;;;11.73;2.10;;;2.30;99.90;;;;;;5008763;28;20216;-51
2024/01/15 04:35:19;;;;;;;10.07;2.50;;;2.30;99.90;;;;;;5012449;28;20635;-47
2024/01/15 04:37:46;;;;;;;12.03;2.13;;;2.30;99.90;;;;;;5016532;28;20231;-47
2024/01/15 04:40:13;;;;;;;21.57;2.50;;;2.40;99.90;;;;;;5042400;28;20250;-50
2024/01/15 04:42:41;;;;;;;10.80;2.10;;;2.40;99.90;;;;;;5042285;28;20199;-51
2024/01/15 04:45:09;;;;;;;9.90;2.07;;;2.30;99.90;;;;;;5032842;28;20273;-46
2024/01/15 04:47:37;;;;;;;17.40;2.83;;;2.30;99.90;;;;;;5015416;28;20243;-48
2024/01/15 04:50:05;;;;;;;12.90;2.07;;;2.40;99.90;;;;;;5039044;28;20218;-48
2024/01/15 04:52:32;;;;;;;19.33;2.97;;;2.30;99.90;;;;;;5027681;28;20225;-51
2024/01/15 04:54:59;;;;;;;21.47;3.23;;;2.30;99.90;;;;;;5031944;28;20981;-48
2024/01/15 04:57:26;;;;;;;14.57;2.80;;;2.30;99.90;;;;;;5038875;28;20219;-50
2024/01/15 04:59:54;;;;;;;10.73;2.50;;;2.40;99.90;;;;;;5021435;28;20202;-50
2024/01/15 05:02:21;;;;;;;15.53;2.10;;;2.40;99.90;;;;;;5024233;28;20602;-47
2024/01/15 05:04:48;;;;;;;17.20;3.70;;;2.40;99.90;;;;;;5005706;28;20207;-49
2024/01/15 05:07:14;;;;;;;13.60;2.77;;;2.50;99.90;;;;;;5034722;28;20278;-47
2024/01/15 05:09:41;;;;;;;20.07;2.90;;;2.50;99.90;;;;;;5024879;28;20261;-47
2024/01/15 05:12:09;;;;;;;18.33;2.73;;;2.40;99.90;;;;;;5038222;28;20564;-46
2024/01/15 05:14:35;;;;;;;21.00;2.83;;;2.50;99.90;;;;;;5038937;28;20199;-50
2024/01/15 05:17:04;;;;;;;17.93;3.70;;;2.50;99.90;;;;;;5040286;28;20196;-50
2024/01/15 05:19:31;;;;;;;18.57;2.97;;;2.50;99.90;;;;;;5022722;28;20246;-52
2024/01/15 05:21:58;;;;;;;19.37;3.60;;;2.50;99.90;;;;;;5017789;28;20377;-49
2024/01/15 05:24:26;;;;;;;16.73;3.33;;;2.50;99.90;;;;;;5019270;28;20195;-51
2024/01/15 05:26:53;;;;;;;18.13;3.03;;;2.50;99.90;;;;;;5036921;28;20192;-48
2024/01/15 05:29:19;;;;;;;19.97;3.53;;;2.60;99.90;;;;;;5038158;28;20783;-47
2024/01/15 05:31:46;;;;;;;27.07;4.30;;;2.60;99.90;;;;;;5022172;28;20203;-45
2024/01/15 05:34:15;;;;;;;14.80;2.77;;;2.60;99.90;;;;;;5041366;28;20562;-46
2024/01/15 05:36:41;;;;;;;15.57;2.87;;;2.60;99.90;;;;;;4996469;28;20219;-45
2024/01/15 05:39:08;;;;;;;19.47;2.73;;;2.70;99.90;;;;;;5014304;28;20583;-49
2024/01/15 05:41:35;;;;;;;25.13;3.77;;;2.70;99.90;;;;;;5033352;28;20203;-47
2024/01/15 05:44:02;;;;;;;16.27;2.97;;;2.70;99.90;;;;;;5041160;28;20222;-48
2024/01/15 05:46:29;;;;;;;13.33;3.23;;;2.70;99.90;;;;;;5031326;28;20200;-49
2024/01/15 05:48:56;;;;;;;18.43;3.33;;;2.70;99.90;;;;;;5042328;28;20265;-45
2024/01/15 05:51:24;;;;;;;19.00;3.13;;;2.60;99.90;;;;;;5028410;28;20203;-49
2024/01/15 05:53:51;;;;;;;20.10;3.57;;;2.70;99.90;;;;;;5015710;28;20215;-48
2024/01/15 05:56:18;;;;;;;15.53;2.67;;;2.70;99.90;;;;;;5025370;28;20203;-50
2024/01/15 05:58:44;;;;;;;16.67;3.40;;;2.70;99.90;;;;;;5039137;28;20217;-49
2024/01/15 06:01:11;;;;;;;11.50;3.00;;;2.70;99.90;;;;;;5038697;28;20725;-50
2024/01/15 06:03:38;;;;;;;11.17;2.43;;;2.70;99.90;;;;;;5023576;28;20887;-48
2024/01/15 06:06:05;;;;;;;25.30;2.70;;;2.70;99.90;;;;;;5033172;28;20211;-47
2024/01/15 06:08:34;;;;;;;23.00;3.03;;;2.70;99.90;;;;;;4999501;28;20239;-51
2024/01/15 06:11:01;;;;;;;20.83;3.23;;;2.70;99.90;;;;;;5025156;28;20691;-48
2024/01/15 06:13:27;;;;;;;14.70;3.43;;;2.70;99.90;;;;;;5026679;28;20325;-54
2024/01/15 06:15:54;;;;;;;16.73;2.67;;;2.70;99.90;;;;;;5037872;28;20195;-52
2024/01/15 06:18:21;;;;;;;18.53;3.00;;;2.70;99.90;;;;;;5018998;28;20216;-50
2024/01/15 06:20:48;;;;;;;21.70;3.13;;;2.60;99.90;;;;;;5029763;28;20208;-49
2024/01/15 06:23:15;;;;;;;13.63;2.10;;;2.60;99.90;;;;;;5040953;28;20195;-51
2024/01/15 06:25:43;;;;;;;11.57;2.27;;;2.60;99.90;;;;;;4998982;28;20200;-51
2024/01/15 06:28:10;;;;;;;17.30;2.17;;;2.60;99.90;;;;;;5037659;28;20219;-48
2024/01/15 06:30:38;;;;;;;5.47;1.60;;;2.60;99.90;;;;;;5033933;28;20915;-47
2024/01/15 06:33:05;;;;;;;6.67;1.70;;;2.60;99.90;;;;;;5026529;28;20216;-48
2024/01/15 06:35:34;;;;;;;6.07;0.90;;;2.60;99.90;;;;;;5015863;28;20204;-49
2024/01/15 06:38:01;;;;;;;3.13;1.43;;;2.60;99.90;;;;;;5041165;28;20211;-48
2024/01/15 06:40:27;;;;;;;9.73;1.43;;;2.60;99.90;;;;;;5002234;28;20211;-52
2024/01/15 06:42:55;;;;;;;8.63;1.13;;;2.60;99.90;;;;;;5032001;28;20950;-47
2024/01/15 06:45:22;;;;;;;3.53;1.07;;;2.60;99.90;;;;;;5038882;28;20192;-48
2024/01/15 06:47:49;;;;;;;4.20;1.17;;;2.60;99.90;;;;;;5037406;28;20215;-48
2024/01/15 06:50:16;;;;;;;3.57;1.07;;;2.60;99.90;;;;;;5027312;28;20288;-51
2024/01/15 06:52:43;;;;;;;6.37;1.10;;;2.70;99.90;;;;;;5029447;28;20199;-50
2024/01/15 06:55:09;;;;;;;9.03;1.10;;;2.70;99.90;;;;;;5004971;28;20305;-48
2024/01/15 06:57:36;;;;;;;2.73;0.97;;;2.70;99.90;;;;;;5033302;28;20255;-48
2024/01/15 07:00:08;;;;;;;3.40;1.00;;;2.70;99.90;;;;;;5041131;28;20968;-50
2024/01/15 07:02:34;;;;;;;4.33;0.80;;;2.70;99.90;;;;;;5039872;28;20354;-48
2024/01/15 07:05:01;;;;;;;5.20;1.33;;;2.70;99.90;;;;;;5028744;28;20269;-46
2024/01/15 07:07:29;;;;;;;9.73;1.53;;;2.70;99.90;;;;;;5031726;28;20280;-46
2024/01/15 07:09:58;;;;;;;5.47;0.80;;;2.70;99.90;;;;;;5034119;28;20652;-51
2024/01/15 07:12:25;;;;;;;5.17;0.90;;;2.70;99.90;;;;;;5011412;28;20679;-49
2024/01/15 07:14:52;;;;;;;4.70;1.17;;;2.70;99.90;;;;;;5039710;28;20273;-51
2024/01/15 07:17:20;;;;;;;7.23;0.93;;;2.70;99.90;;;;;;5040480;28;20195;-51
2024/01/15 07:19:47;;;;;;;5.07;0.93;;;2.70;99.90;;;;;;5030760;28;20577;-49
2024/01/15 07:22:15;;;;;;;7.93;1.40;;;2.60;99.90;;;;;;5047184;28;20976;-48
2024/01/15 07:24:41;;;;;;;6.83;1.00;;;2.60;99.90;;;;;;5043420;28;20196;-52
2024/01/15 07:27:08;;;;;;;4.87;0.80;;;2.60;99.90;;;;;;5010198;28;20267;-47
2024/01/15 07:29:37;;;;;;;3.07;1.50;;;2.60;99.90;;;;;;5043401;28;20207;-48
2024/01/15 07:32:04;;;;;;;3.67;1.07;;;2.60;99.90;;;;;;5028148;28;20253;-52
2024/01/15 07:34:33;;;;;;;6.33;1.40;;;2.60;99.90;;;;;;5032689;28;20235;-50
2024/01/15 07:36:59;;;;;;;7.53;1.10;;;2.70;99.90;;;;;;5045215;28;20576;-51
2024/01/15 07:39:28;;;;;;;8.07;1.40;;;2.70;99.90;;;;;;5027380;28;20204;-48
2024/01/15 07:41:55;;;;;;;3.70;1.10;;;2.70;99.90;;;;;;5029360;28;20676;-53
2024/01/15 07:44:22;;;;;;;10.20;1.10;;;2.70;99.90;;;;;;5027124;28;20188;-53
2024/01/15 07:46:49;;;;;;;7.37;1.10;;;2.70;99.90;;;;;;5036220;28;20200;-49
2024/01/15 07:49:16;;;;;;;4.87;1.43;;;2.60;99.90;;;;;;5037557;28;20223;-48
2024/01/15 07:51:44;;;;;;;9.93;1.50;;;2.60;99.90;;;;;;5032761;28;20337;-49
2024/01/15 07:54:12;;;;;;;4.63;1.20;;;2.60;99.90;;;;;;5026584;28;20617;-50
2024/01/15 07:56:54;;;;;;;2.47;0.80;;;2.60;99.90;;;;;;5035621;28;20987;-48
2024/01/15 07:59:21;;;;;;;4.67;1.03;;;2.60;99.90;;;;;;5007043;28;20222;-51
2024/01/15 08:01:48;;;;;;;2.57;0.90;;;2.50;99.90;;;;;;5012944;28;20856;-50
2024/01/15 08:04:15;;;;;;;4.33;0.93;;;2.60;99.90;;;;;;5029712;28;20275;-51
2024/01/15 08:06:41;;;;;;;6.67;1.07;;;2.60;99.90;;;;;;5042968;28;20187;-49
2024/01/15 08:09:10;;;;;;;4.50;0.93;;;2.60;99.90;;;;;;5036979;28;20633;-51
2024/01/15 08:11:37;;;;;;;6.67;1.20;;;2.50;99.90;;;;;;5038692;28;20188;-50
2024/01/15 08:14:04;;;;;;;6.63;1.10;;;2.60;99.90;;;;;;5011335;28;20228;-49
2024/01/15 08:16:30;;;;;;;2.33;0.70;;;2.60;99.90;;;;;;5033013;28;20252;-51
2024/01/15 08:18:57;;;;;;;3.00;1.10;;;2.60;99.90;;;;;;5049575;28;20215;-51
2024/01/15 08:21:24;;;;;;;7.03;1.30;;;2.60;99.90;;;;;;5037314;28;20191;-50
2024/01/15 08:23:51;;;;;;;4.37;0.70;;;2.60;99.90;;;;;;5033162;28;20238;-47
2024/01/15 08:26:20;;;;;;;7.80;1.23;;;2.60;99.90;;;;;;5037291;28;20211;-47
2024/01/15 08:28:48;;;;;;;4.43;0.93;;;2.60;99.90;;;;;;5007562;28;20687;-46
2024/01/15 08:31:15;;;;;;;6.40;0.90;;;2.60;99.90;;;;;;5038894;28;20198;-52
2024/01/15 08:33:42;;;;;;;11.30;1.37;;;2.60;99.90;;;;;;5037386;28;20215;-47
2024/01/15 08:36:10;;;;;;;8.97;1.87;;;2.60;99.90;;;;;;5040753;28;20190;-51
2024/01/15 08:38:37;;;;;;;13.80;1.60;;;2.60;99.90;;;;;;5026109;28;20227;-48
2024/01/15 08:41:04;;;;;;;7.13;1.20;;;2.60;99.90;;;;;;5049046;28;20544;-48
2024/01/15 08:43:32;;;;;;;8.57;1.30;;;2.70;99.90;;;;;;5037829;28;20916;-49
2024/01/15 08:45:59;;;;;;;5.87;1.10;;;2.70;99.90;;;;;;5016401;28;20218;-48
2024/01/15 08:48:27;;;;;;;9.23;1.20;;;2.70;99.90;;;;;;5035079;28;20392;-47
2024/01/15 08:50:54;;;;;;;6.43;1.27;;;2.70;99.90;;;;;;5041150;28;20207;-48
2024/01/15 08:53:21;;;;;;;3.23;1.50;;;2.70;99.90;;;;;;5030056;28;20213;-50
2024/01/15 08:55:49;;;;;;;3.70;1.00;;;2.70;99.90;;;;;;5043273;28;20203;-48
2024/01/15 08:58:16;;;;;;;6.47;1.10;;;2.70;99.90;;;;;;5040432;28;20378;-52
2024/01/15 09:00:44;;;;;;;7.93;1.50;;;2.60;99.90;;;;;;5010485;28;21392;-50
2024/01/15 09:03:11;;;;;;;4.40;1.00;;;2.60;99.90;;;;;;5031635;28;20485;-51
2024/01/15 09:05:38;;;;;;;4.37;1.40;;;2.50;99.90;;;;;;5043878;28;20439;-52
2024/01/15 09:08:05;;;;;;;5.33;1.20;;;2.40;99.90;;;;;;5020098;28;20223;-52
2024/01/15 09:10:32;;;;;;;7.97;1.80;;;2.40;99.90;;;;;;5043210;28;20199;-51
2024/01/15 09:13:00;;;;;;;5.97;1.30;;;2.30;99.90;;;;;;5022629;28;20207;-53
2024/01/15 09:15:27;;;;;;;5.73;1.10;;;2.30;99.90;;;;;;5039598;28;20657;-53
2024/01/15 09:17:57;;;;;;;5.70;1.07;;;2.20;99.90;;;;;;5005143;28;20227;-53
2024/01/15 09:20:25;;;;;;;4.10;1.07;;;2.20;99.90;;;;;;5027995;28;20274;-48
2024/01/15 09:22:52;;;;;;;9.40;1.10;;;2.10;99.90;;;;;;5034369;28;20964;-52
2024/01/15 09:25:19;;;;;;;6.10;1.30;;;2.10;99.90;;;;;;5036712;28;20203;-50
2024/01/15 09:27:46;;;;;;;5.03;1.30;;;2.10;99.90;;;;;;5031154;28;20241;-52
2024/01/15 09:30:14;;;;;;;5.00;1.17;;;2.10;99.90;;;;;;5039533;28;20274;-50
2024/01/15 09:32:40;;;;;;;5.43;1.37;;;2.10;99.90;;;;;;5011930;28;20203;-52
2024/01/15 09:35:10;;;;;;;4.10;1.07;;;2.10;99.90;;;;;;5022786;28;21002;-48
2024/01/15 09:37:37;;;;;;;4.60;1.10;;;2.10;99.90;;;;;;5035871;28;20215;-50
2024/01/15 09:40:06;;;;;;;9.37;1.40;;;2.10;99.90;;;;;;5025310;28;20206;-53
2024/01/15 09:42:33;;;;;;;9.87;1.33;;;2.10;99.90;;;;;;5027268;28;20266;-48
2024/01/15 09:45:01;;;;;;;10.80;1.60;;;2.10;99.90;;;;;;5036740;28;20195;-51
2024/01/15 09:47:27;;;;;;;1.97;0.83;;;2.10;99.90;;;;;;5011004;28;20808;-51
2024/01/15 09:49:56;;;;;;;5.17;1.17;;;2.10;99.90;;;;;;5027754;28;20737;-51
2024/01/15 09:52:25;;;;;;;12.47;1.57;;;2.00;99.90;;;;;;5036298;28;20195;-47
2024/01/15 09:54:52;;;;;;;6.13;1.07;;;2.00;99.90;;;;;;5026511;28;20309;-50
2024/01/15 09:57:19;;;;;;;4.03;1.30;;;2.00;99.90;;;;;;5019682;28;20341;-47
2024/01/15 09:59:48;;;;;;;6.23;1.30;;;2.00;99.90;;;;;;5025938;28;20203;-51
2024/01/15 10:02:18;;;;;;;7.20;1.20;;;2.00;99.90;;;;;;5038540;28;20191;-52
2024/01/15 10:04:44;;;;;;;3.20;1.00;;;2.00;99.90;;;;;;5003474;28;20210;-52
2024/01/15 10:07:15;;;;;;;7.83;1.57;;;2.00;99.90;;;;;;5031024;28;20187;-49
2024/01/15 10:09:44;;;;;;;8.00;1.40;;;2.00;99.90;;;;;;5027679;28;20337;-50
2024/01/15 10:12:11;;;;;;;9.73;1.60;;;2.00;99.90;;;;;;5038452;28;20207;-51
2024/01/15 10:14:41;;;;;;;5.60;1.27;;;2.00;99.90;;;;;;5029444;28;20215;-50
2024/01/15 10:17:15;;;;;;;9.00;2.27;;;2.00;99.90;;;;;;5040987;28;20191;-49
2024/01/15 10:19:42;;;;;;;9.83;2.03;;;2.00;99.90;;;;;;4997108;28;20285;-51
2024/01/15 10:22:09;;;;;;;7.20;1.77;;;2.00;99.90;;;;;;5041643;28;20203;-52
2024/01/15 10:24:37;;;;;;;8.73;2.07;;;2.00;99.90;;;;;;5030393;28;20225;-48
2024/01/15 10:27:09;;;;;;;6.03;1.73;;;2.10;99.90;;;;;;5047970;28;20196;-53
2024/01/15 10:29:37;;;;;;;6.83;1.57;;;2.10;99.90;;;;;;5020602;28;20234;-49
2024/01/15 10:32:07;;;;;;;6.70;1.53;;;2.10;99.90;;;;;;5028310;28;20246;-49
2024/01/15 10:34:34;;;;;;;6.73;1.37;;;2.10;99.90;;;;;;4997133;28;20296;-50
2024/01/15 10:37:02;;;;;;;11.13;1.50;;;2.10;99.90;;;;;;5034405;28;20207;-50
2024/01/15 10:39:30;;;;;;;6.37;1.20;;;2.10;99.90;;;;;;5034530;28;20192;-53
2024/01/15 10:41:57;;;;;;;7.43;1.70;;;2.10;99.90;;;;;;5028973;28;20266;-51
2024/01/15 10:44:26;;;;;;;8.10;1.60;;;2.10;99.90;;;;;;5028677;28;20601;-52
2024/01/15 10:46:52;;;;;;;10.90;1.57;;;2.20;99.90;;;;;;5044072;28;20219;-53
2024/01/15 10:49:20;;;;;;;6.83;1.13;;;2.20;99.90;;;;;;5010893;28;20836;-53
2024/01/15 10:51:49;;;;;;;3.90;1.27;;;2.20;99.90;;;;;;5029795;28;20250;-51
2024/01/15 10:54:17;;;;;;;6.43;1.43;;;2.20;99.90;;;;;;5028475;28;20212;-52
2024/01/15 10:56:46;;;;;;;6.47;1.20;;;2.20;99.90;;;;;;5026365;28;20200;-49
2024/01/15 10:59:14;;;;;;;4.43;0.90;;;2.20;99.90;;;;;;5041640;28;20242;-52
2024/01/15 11:01:43;;;;;;;6.07;1.30;;;2.20;99.90;;;;;;5031775;28;20926;-50
2024/01/15 11:04:10;;;;;;;7.43;1.63;;;2.20;99.90;;;;;;5014243;28;20207;-53
2024/01/15 11:06:45;;;;;;;9.57;1.43;;;2.20;99.90;;;;;;5031996;28;20257;-48
2024/01/15 11:09:13;;;;;;;6.43;1.90;;;2.20;99.90;;;;;;5032227;28;20305;-52
2024/01/15 11:11:42;;;;;;;4.77;1.17;;;2.20;99.90;;;;;;5032064;28;20215;-51
2024/01/15 11:14:09;;;;;;;4.80;1.30;;;2.20;99.90;;;;;;5039960;28;20203;-52
2024/01/15 11:16:56;;;;;;;4.03;1.47;;;2.20;99.90;;;;;;5032312;28;20902;-50
2024/01/15 11:19:23;;;;;;;6.17;1.50;;;2.20;99.90;;;;;;5001635;28;20712;-48
2024/01/15 11:21:49;;;;;;;7.13;1.50;;;2.20;99.90;;;;;;5035976;28;20213;-47
2024/01/15 11:24:36;;;;;;;7.03;1.37;;;2.20;99.90;;;;;;5034371;28;20203;-51
2024/01/15 11:27:03;;;;;;;4.73;1.03;;;2.30;99.90;;;;;;5030568;28;20202;-49
2024/01/15 11:29:32;;;;;;;5.30;1.10;;;2.30;99.90;;;;;;5031809;28;20199;-50
2024/01/15 11:32:08;;;;;;;8.77;1.73;;;2.30;99.90;;;;;;5033461;28;20200;-51
2024/01/15 11:34:53;;;;;;;4.57;1.73;;;2.40;99.90;;;;;;5013539;28;20304;-51
2024/01/15 11:37:20;;;;;;;6.57;1.13;;;2.50;99.90;;;;;;5037702;28;20563;-51
2024/01/15 11:39:47;;;;;;;9.30;1.57;;;2.60;99.90;;;;;;5031970;28;20269;-49
2024/01/15 11:42:15;;;;;;;3.80;1.33;;;2.60;99.90;;;;;;5033552;28;20674;-53
2024/01/15 11:44:42;;;;;;;4.23;1.30;;;2.60;99.90;;;;;;5034439;28;20188;-50
2024/01/15 11:47:13;;;;;;;6.90;1.77;;;2.60;99.90;;;;;;5018806;28;20848;-47
2024/01/15 11:50:00;;;;;;;7.87;2.60;;;2.60;99.90;;;;;;5035773;28;20313;-52
2024/01/15 11:52:27;;;;;;;6.20;2.20;;;2.60;99.90;;;;;;5014857;28;20286;-52
2024/01/15 11:55:02;;;;;;;4.80;1.60;;;2.50;99.90;;;;;;5030195;28;20220;-52
2024/01/15 11:57:38;;;;;;;5.63;1.58;;;2.50;99.90;;;;;;5049573;28;20424;-53
2024/01/15 12:00:06;;;;;;;2.57;1.30;;;2.60;99.90;;;;;;5009496;28;20945;-48
2024/01/15 12:02:42;;;;;;;4.80;1.20;;;2.60;99.90;;;;;;5026148;28;20715;-51
2024/01/15 12:05:09;;;;;;;6.63;1.30;;;2.60;99.90;;;;;;5042151;28;20300;-50
2024/01/15 12:07:35;;;;;;;4.87;1.43;;;2.60;99.90;;;;;;5007680;28;20245;-50
2024/01/15 12:10:03;;;;;;;4.47;1.23;;;2.50;99.90;;;;;;5023311;28;20275;-49
2024/01/15 12:12:38;;;;;;;4.17;1.20;;;2.60;99.90;;;;;;5035439;28;20211;-50
2024/01/15 12:15:06;;;;;;;2.97;1.00;;;2.60;99.90;;;;;;5031072;28;20702;-52
2024/01/15 12:17:33;;;;;;;5.73;1.07;;;2.60;99.90;;;;;;5030164;28;20223;-49
2024/01/15 12:20:01;;;;;;;2.73;1.00;;;2.50;99.90;;;;;;5024889;28;20196;-53
2024/01/15 12:22:28;;;;;;;3.20;0.90;;;2.50;99.90;;;;;;5009052;28;20199;-49
2024/01/15 12:24:55;;;;;;;1.90;1.00;;;2.50;99.90;;;;;;5040274;28;20199;-51
2024/01/15 12:27:22;;;;;;;2.57;0.77;;;2.50;99.90;;;;;;5040330;28;20222;-50
2024/01/15 12:29:49;;;;;;;3.93;0.60;;;2.50;99.90;;;;;;5032147;28;20286;-49
2024/01/15 12:32:16;;;;;;;2.27;0.60;;;2.40;99.90;;;;;;5032096;28;20199;-50
2024/01/15 12:34:44;;;;;;;2.63;0.70;;;2.40;99.90;;;;;;5026019;28;20950;-51
2024/01/15 12:37:12;;;;;;;3.10;0.67;;;2.40;99.90;;;;;;5026967;28;20241;-51
2024/01/15 12:39:39;;;;;;;1.60;0.77;;;2.40;99.90;;;;;;5015734;28;20568;-48
2024/01/15 12:42:06;;;;;;;4.23;0.70;;;2.40;99.90;;;;;;5038484;28;20207;-50
2024/01/15 12:44:33;;;;;;;2.20;0.43;;;2.40;99.90;;;;;;5027018;28;20808;-48
2024/01/15 12:47:00;;;;;;;1.57;0.60;;;2.40;99.90;;;;;;5038164;28;20200;-51
2024/01/15 12:49:27;;;;;;;7.93;0.90;;;2.40;99.90;;;;;;5028454;28;20952;-50
2024/01/15 12:51:54;;;;;;;4.93;1.07;;;2.40;99.90;;;;;;5045433;28;20200;-49
2024/01/15 12:54:23;;;;;;;2.57;1.57;;;2.50;99.90;;;;;;5008587;28;20286;-55
2024/01/15 12:56:50;;;;;;;2.77;0.90;;;2.50;99.90;;;;;;5033601;28;20671;-49